Casper-Natrona County International Airport Casper US
ICAO: KCPR
IATA: CPR
Category: Large
Scheduled Services: Yes

Elevation: 5350 ft
TransAlt. 18000 ft.

Airport Communications:
CASPER APP/DEP:119
VFR ADVSY SVC:118.3
ATIS:126.15
CTAF:118.3
CASPER GND/CLNC DEL:121.9
CASPER RDO:122.2
CASPER TWR:118.3
UNICOM:122.95

KCPR Zoom In..

Runways:

(A) RW 03 length 10165 ft width 150 ft
ILS 111.30 / hdg 32

(B) RW 08 length 8679 ft width 150 ft
ILS 110.30 / hdg 77

(C) RW 21 length 10165 ft width 150 ft
---- / hdg 212

(D) RW 26 length 8679 ft width 150 ft
---- / hdg 257

Location; KCPR
Day. 22 / Time. 23.53 Zulu
* Altimeter: 30.08
* Temperature: -05° c. -23°f.
* Wind from: 220° Speed 14 kn.
Dewpoint: -09° c.
Visibility: 10 Statute Miles.
Clouds: Broken 1000 ft.

KCPR 222353Z 22014KT 10SM BKN100 M05/M09 A3008 RMK AO2 SLP241 T10501094 11050 21083 52004


Wind From 220°
Speed 14 kn.

YouTube Music Video
 
jpsmedia.com for Web Design  worldairports.se 2018   terms of use